Time;durP1;ratioP1;P1;durP2;ratioP2;P2;SDS_P1;SDS_P2;PMS_P1;PMS_P2;Temp;Humidity;BMP_temperature;BMP_pressure;BME280_temperature;BME280_humidity;BME280_pressure;Samples;Min_cycle;Max_cycle;Signal;HPM_P1;HPM_P2
2022/04/11 00:00:00;;;;;;;7.70;2.33;;;2.90;99.90;;;;;;5065709;28;20201;-61
2022/04/11 00:02:27;;;;;;;4.03;2.03;;;2.90;99.90;;;;;;5074798;28;20201;-62
2022/04/11 00:04:54;;;;;;;5.20;2.20;;;3.00;99.90;;;;;;5073308;28;20233;-62
2022/04/11 00:07:22;;;;;;;7.07;2.23;;;3.00;99.90;;;;;;5083977;28;20216;-62
2022/04/11 00:09:49;;;;;;;12.17;2.87;;;3.20;99.90;;;;;;5079469;28;21016;-62
2022/04/11 00:12:16;;;;;;;4.50;2.10;;;3.20;99.90;;;;;;5085341;28;20207;-63
2022/04/11 00:14:43;;;;;;;5.37;2.60;;;3.30;99.90;;;;;;5077812;28;20302;-63
2022/04/11 00:17:10;;;;;;;10.13;2.70;;;3.30;99.90;;;;;;5081960;28;20211;-62
2022/04/11 00:19:36;;;;;;;5.43;2.50;;;3.40;99.90;;;;;;5075632;28;20213;-63
2022/04/11 00:22:04;;;;;;;6.90;2.83;;;3.40;99.90;;;;;;5078870;28;20211;-63
2022/04/11 00:24:32;;;;;;;4.43;2.40;;;3.40;99.90;;;;;;5102092;28;20227;-65
2022/04/11 00:26:59;;;;;;;5.50;2.53;;;3.50;99.90;;;;;;5122639;28;20217;-63
2022/04/11 00:29:26;;;;;;;4.60;2.50;;;3.50;99.90;;;;;;5087484;28;20587;-63
2022/04/11 00:31:53;;;;;;;6.57;2.90;;;3.50;99.90;;;;;;5089321;28;20220;-64
2022/04/11 00:34:20;;;;;;;5.93;2.43;;;3.50;99.90;;;;;;5081983;28;20206;-63
2022/04/11 00:36:46;;;;;;;6.10;2.70;;;3.40;99.90;;;;;;5070659;28;21112;-65
2022/04/11 00:39:13;;;;;;;9.43;2.40;;;3.30;99.90;;;;;;5086577;28;20199;-63
2022/04/11 00:41:42;;;;;;;8.13;3.47;;;3.30;99.90;;;;;;5085216;28;20206;-63
2022/04/11 00:44:09;;;;;;;5.63;2.07;;;3.30;99.90;;;;;;5056520;28;20213;-69
2022/04/11 00:46:36;;;;;;;2.97;2.00;;;3.30;99.90;;;;;;5088112;28;20216;-63
2022/04/11 00:49:03;;;;;;;3.97;2.40;;;3.30;99.90;;;;;;5057208;28;20303;-62
2022/04/11 00:51:30;;;;;;;6.13;2.87;;;3.30;99.90;;;;;;5067471;28;20308;-62
2022/04/11 00:54:00;;;;;;;2.47;2.17;;;3.20;99.90;;;;;;5084035;28;20704;-64
2022/04/11 00:56:29;;;;;;;5.53;2.77;;;3.30;99.90;;;;;;5083782;28;20295;-62
2022/04/11 00:59:01;;;;;;;6.83;2.23;;;3.30;99.90;;;;;;5070405;28;20977;-63
2022/04/11 01:01:28;;;;;;;5.73;1.93;;;3.20;99.90;;;;;;5092123;28;20201;-63
2022/04/11 01:03:55;;;;;;;3.50;2.03;;;3.30;99.90;;;;;;5066096;28;20206;-62
2022/04/11 01:06:22;;;;;;;3.73;2.03;;;3.30;99.90;;;;;;5076425;28;20230;-62
2022/04/11 01:08:49;;;;;;;5.90;2.70;;;3.30;99.90;;;;;;5063760;28;20734;-62
2022/04/11 01:11:16;;;;;;;6.43;2.53;;;3.30;99.90;;;;;;5087115;28;21594;-62
2022/04/11 01:13:43;;;;;;;7.57;2.67;;;3.30;99.90;;;;;;5079717;28;20204;-62
2022/04/11 01:16:11;;;;;;;4.17;2.37;;;3.30;99.90;;;;;;5079541;28;20207;-62
2022/04/11 01:18:39;;;;;;;4.37;2.17;;;3.30;99.90;;;;;;5077638;28;20204;-62
2022/04/11 01:21:09;;;;;;;5.80;2.30;;;3.20;99.90;;;;;;5070020;28;20294;-62
2022/04/11 01:23:37;;;;;;;6.47;2.00;;;3.20;99.90;;;;;;5064776;28;20207;-62
2022/04/11 01:26:06;;;;;;;5.57;2.50;;;3.20;99.90;;;;;;5087161;28;20225;-62
2022/04/11 01:28:37;;;;;;;3.40;2.30;;;3.10;99.90;;;;;;5088206;28;20209;-62
2022/04/11 01:31:04;;;;;;;2.73;1.80;;;3.00;99.90;;;;;;5072869;28;20664;-62
2022/04/11 01:33:31;;;;;;;3.07;1.83;;;2.90;99.90;;;;;;5086755;28;20689;-63
2022/04/11 01:35:58;;;;;;;5.67;2.23;;;2.80;99.90;;;;;;5060732;28;20206;-63
2022/04/11 01:38:25;;;;;;;6.97;2.53;;;2.80;99.90;;;;;;5071876;28;20691;-62
2022/04/11 01:40:55;;;;;;;4.67;2.30;;;2.70;99.90;;;;;;5086809;28;20197;-63
2022/04/11 01:43:22;;;;;;;6.00;2.40;;;2.80;99.90;;;;;;5087351;28;20202;-62
2022/04/11 01:45:50;;;;;;;6.37;2.90;;;2.90;99.90;;;;;;5077389;28;20236;-63
2022/04/11 01:48:17;;;;;;;6.60;2.70;;;3.00;99.90;;;;;;5086020;28;20231;-62
2022/04/11 01:50:44;;;;;;;5.10;2.43;;;3.10;99.90;;;;;;5074754;28;20212;-63
2022/04/11 01:53:14;;;;;;;2.73;2.00;;;3.10;99.90;;;;;;5061387;28;20850;-62
2022/04/11 01:55:41;;;;;;;7.33;2.50;;;3.10;99.90;;;;;;5083406;28;20199;-63
2022/04/11 01:58:10;;;;;;;5.07;2.00;;;3.00;99.90;;;;;;5075226;28;20217;-63
2022/04/11 02:00:38;;;;;;;5.17;2.00;;;3.00;99.90;;;;;;5085456;27;20204;-62
2022/04/11 02:03:07;;;;;;;3.10;2.30;;;3.00;99.90;;;;;;5065545;28;20206;-62
2022/04/11 02:05:34;;;;;;;6.43;2.53;;;3.10;99.90;;;;;;5075363;28;20229;-62
2022/04/11 02:08:02;;;;;;;5.40;2.50;;;3.10;99.90;;;;;;5076765;28;20298;-63
2022/04/11 02:10:30;;;;;;;8.17;2.40;;;3.00;99.90;;;;;;5074419;28;20955;-63
2022/04/11 02:12:58;;;;;;;5.73;2.33;;;2.90;99.90;;;;;;5085184;28;20640;-62
2022/04/11 02:15:26;;;;;;;5.07;2.57;;;2.90;99.90;;;;;;5089478;28;20305;-62
2022/04/11 02:17:53;;;;;;;3.27;2.27;;;2.90;99.90;;;;;;5069521;28;20214;-62
2022/04/11 02:20:21;;;;;;;2.97;1.97;;;2.80;99.90;;;;;;5068677;27;20219;-63
2022/04/11 02:22:49;;;;;;;3.03;2.27;;;2.70;99.90;;;;;;5086700;28;20249;-63
2022/04/11 02:25:17;;;;;;;2.93;2.30;;;2.70;99.90;;;;;;5064134;28;20234;-62
2022/04/11 02:27:45;;;;;;;5.00;2.30;;;2.60;99.90;;;;;;5087543;28;20585;-62
2022/04/11 02:30:13;;;;;;;3.20;1.97;;;2.60;99.90;;;;;;5085462;28;20225;-62
2022/04/11 02:32:42;;;;;;;5.77;2.27;;;2.50;99.90;;;;;;5090454;28;21584;-62
2022/04/11 02:35:10;;;;;;;3.67;2.63;;;2.40;99.90;;;;;;5066870;28;20797;-63
2022/04/11 02:37:37;;;;;;;4.30;2.27;;;2.30;99.90;;;;;;5078746;28;20204;-62
2022/04/11 02:40:07;;;;;;;3.17;2.30;;;2.20;99.90;;;;;;5070374;27;20201;-63
2022/04/11 02:42:34;;;;;;;3.73;2.30;;;2.10;99.90;;;;;;5080515;27;20282;-62
2022/04/11 02:45:02;;;;;;;2.27;1.93;;;2.00;99.90;;;;;;5083044;28;20224;-62
2022/04/11 02:47:29;;;;;;;4.60;2.20;;;2.10;99.90;;;;;;5089838;28;20196;-62
2022/04/11 02:49:57;;;;;;;3.40;2.00;;;2.10;99.90;;;;;;5077401;28;20214;-62
2022/04/11 02:52:24;;;;;;;5.83;2.10;;;2.00;99.90;;;;;;5075424;27;23376;-63
2022/04/11 02:54:53;;;;;;;4.87;2.00;;;2.00;99.90;;;;;;5077011;28;20294;-62
2022/04/11 02:57:22;;;;;;;8.23;2.43;;;2.00;99.90;;;;;;5093121;27;20348;-62
2022/04/11 02:59:50;;;;;;;3.67;2.20;;;1.90;99.90;;;;;;5100770;27;20291;-61
2022/04/11 03:02:16;;;;;;;4.90;2.50;;;1.90;99.90;;;;;;5120666;28;20673;-62
2022/04/11 03:04:43;;;;;;;3.87;2.40;;;1.80;99.90;;;;;;5099092;27;20210;-62
2022/04/11 03:07:12;;;;;;;3.50;2.10;;;1.80;99.90;;;;;;5077198;28;20199;-63
2022/04/11 03:09:40;;;;;;;4.13;2.27;;;1.80;99.90;;;;;;5090068;28;20203;-62
2022/04/11 03:12:08;;;;;;;6.13;2.80;;;1.80;99.90;;;;;;5071099;27;20208;-62
2022/04/11 03:14:35;;;;;;;2.50;1.97;;;1.70;99.90;;;;;;5083399;28;20194;-62
2022/04/11 03:17:02;;;;;;;5.37;2.40;;;1.80;99.90;;;;;;5084269;28;20201;-62
2022/04/11 03:19:29;;;;;;;2.37;2.00;;;1.90;99.90;;;;;;5077497;27;20973;-62
2022/04/11 03:21:55;;;;;;;7.13;2.27;;;1.90;99.90;;;;;;5085379;28;20702;-62
2022/04/11 03:24:24;;;;;;;3.10;2.07;;;1.90;99.90;;;;;;5061341;28;20960;-62
2022/04/11 03:26:50;;;;;;;5.33;2.27;;;1.80;99.90;;;;;;5064086;28;20243;-62
2022/04/11 03:29:17;;;;;;;4.17;2.60;;;1.80;99.90;;;;;;5082346;28;20214;-62
2022/04/11 03:31:46;;;;;;;4.53;2.20;;;1.80;99.90;;;;;;5084473;28;20192;-62
2022/04/11 03:34:13;;;;;;;2.83;2.30;;;1.80;99.90;;;;;;5088224;28;20209;-62
2022/04/11 03:36:40;;;;;;;7.47;2.27;;;1.70;99.90;;;;;;5072427;28;21047;-62
2022/04/11 03:39:07;;;;;;;5.40;2.53;;;1.70;99.90;;;;;;5064768;27;21344;-62
2022/04/11 03:41:35;;;;;;;6.40;2.00;;;1.60;99.90;;;;;;5071995;28;20210;-62
2022/04/11 03:44:02;;;;;;;2.80;2.20;;;1.60;99.90;;;;;;5070973;28;20211;-62
2022/04/11 03:46:29;;;;;;;4.33;2.23;;;1.60;99.90;;;;;;5083797;28;20219;-63
2022/04/11 03:48:56;;;;;;;2.50;2.30;;;1.60;99.90;;;;;;5076336;28;20921;-62
2022/04/11 03:51:23;;;;;;;4.03;2.40;;;1.60;99.90;;;;;;5075924;28;20217;-62
2022/04/11 03:53:50;;;;;;;6.17;2.40;;;1.60;99.90;;;;;;5086354;28;20211;-62
2022/04/11 03:56:17;;;;;;;4.97;2.40;;;1.60;99.90;;;;;;5072093;28;20874;-62
2022/04/11 03:58:46;;;;;;;5.20;2.63;;;1.60;99.90;;;;;;5054741;28;20205;-62
2022/04/11 04:01:13;;;;;;;5.63;2.40;;;1.60;99.90;;;;;;5079694;28;20208;-63
2022/04/11 04:03:41;;;;;;;5.07;2.40;;;1.50;99.90;;;;;;5089937;27;20209;-62
2022/04/11 04:06:08;;;;;;;9.87;2.53;;;1.50;99.90;;;;;;5070758;28;21051;-63
2022/04/11 04:08:36;;;;;;;2.47;2.27;;;1.60;99.90;;;;;;5086117;28;20235;-64
2022/04/11 04:11:03;;;;;;;6.13;2.50;;;1.60;99.90;;;;;;5078348;28;20230;-62
2022/04/11 04:13:30;;;;;;;6.37;2.93;;;1.60;99.90;;;;;;5058589;28;21888;-62
2022/04/11 04:15:58;;;;;;;6.43;2.50;;;1.60;99.90;;;;;;5083739;28;20230;-63
2022/04/11 04:18:25;;;;;;;6.83;2.70;;;1.50;99.90;;;;;;5088112;28;20309;-62
2022/04/11 04:20:52;;;;;;;4.43;2.40;;;1.50;99.90;;;;;;5076919;27;20347;-61
2022/04/11 04:23:19;;;;;;;8.13;2.40;;;1.50;99.90;;;;;;5075168;28;20677;-62
2022/04/11 04:25:46;;;;;;;5.77;2.30;;;1.50;99.90;;;;;;5076549;28;20235;-62
2022/04/11 04:28:17;;;;;;;10.90;2.70;;;1.50;99.90;;;;;;5069471;28;20210;-62
2022/04/11 04:30:44;;;;;;;3.67;2.33;;;1.50;99.90;;;;;;5074647;28;20201;-62
2022/04/11 04:33:13;;;;;;;4.47;2.20;;;1.50;99.90;;;;;;5085565;28;20218;-62
2022/04/11 04:35:40;;;;;;;3.90;2.57;;;1.50;99.90;;;;;;5070586;28;20223;-62
2022/04/11 04:38:07;;;;;;;4.17;2.50;;;1.50;99.90;;;;;;5072777;28;20218;-62
2022/04/11 04:40:34;;;;;;;6.83;2.70;;;1.50;99.90;;;;;;5072771;28;20206;-62
2022/04/11 04:43:01;;;;;;;6.00;2.70;;;1.40;99.90;;;;;;5072723;28;20681;-62
2022/04/11 04:45:28;;;;;;;3.90;2.83;;;1.40;99.90;;;;;;5070805;28;20899;-62
2022/04/11 04:47:55;;;;;;;6.63;2.80;;;1.40;99.90;;;;;;5085607;28;20208;-62
2022/04/11 04:50:23;;;;;;;6.73;2.77;;;1.40;99.90;;;;;;5083887;28;20209;-62
2022/04/11 04:52:50;;;;;;;6.90;3.07;;;1.40;99.90;;;;;;5067077;28;21182;-62
2022/04/11 04:55:18;;;;;;;8.53;3.10;;;1.30;99.90;;;;;;5085565;28;20207;-62
2022/04/11 04:57:45;;;;;;;9.03;3.30;;;1.40;99.90;;;;;;5075587;28;20207;-63
2022/04/11 05:00:13;;;;;;;6.87;3.17;;;1.50;99.90;;;;;;5059367;28;20212;-62
2022/04/11 05:02:40;;;;;;;5.03;2.63;;;1.60;99.90;;;;;;5082701;28;20289;-63
2022/04/11 05:05:09;;;;;;;8.43;3.37;;;1.60;99.90;;;;;;5081012;28;20203;-62
2022/04/11 05:07:39;;;;;;;7.47;3.90;;;1.60;99.90;;;;;;5079601;28;20237;-62
2022/04/11 05:10:06;;;;;;;5.50;2.67;;;1.60;99.90;;;;;;5070616;28;20214;-62
2022/04/11 05:12:39;;;;;;;4.83;3.27;;;1.60;99.90;;;;;;5072873;28;21122;-62
2022/04/11 05:15:07;;;;;;;8.10;3.10;;;1.70;99.90;;;;;;5071660;28;20223;-62
2022/04/11 05:17:34;;;;;;;6.63;3.10;;;1.70;99.90;;;;;;5077459;27;20783;-62
2022/04/11 05:20:01;;;;;;;14.70;3.47;;;1.80;99.90;;;;;;5096947;28;20582;-62
2022/04/11 05:22:28;;;;;;;5.20;2.87;;;1.90;99.90;;;;;;5082556;27;20668;-62
2022/04/11 05:24:56;;;;;;;6.33;3.13;;;1.90;99.90;;;;;;5081312;28;20210;-62
2022/04/11 05:27:26;;;;;;;6.90;2.93;;;2.00;99.90;;;;;;5097941;28;20760;-62
2022/04/11 05:29:53;;;;;;;11.97;2.77;;;2.00;99.90;;;;;;5070791;28;20214;-62
2022/04/11 05:32:20;;;;;;;5.60;3.00;;;2.10;99.90;;;;;;5094554;27;20210;-62
2022/04/11 05:34:47;;;;;;;4.37;3.13;;;2.10;99.90;;;;;;5094213;27;20914;-63
2022/04/11 05:37:14;;;;;;;6.47;3.03;;;2.10;99.90;;;;;;5121403;28;20311;-63
2022/04/11 05:39:41;;;;;;;8.97;3.13;;;2.10;99.90;;;;;;5090125;27;20498;-63
2022/04/11 05:42:10;;;;;;;3.63;2.50;;;2.20;99.90;;;;;;5099890;27;20213;-63
2022/04/11 05:44:38;;;;;;;5.10;3.13;;;2.20;99.90;;;;;;5078320;28;20198;-63
2022/04/11 05:47:05;;;;;;;6.07;3.47;;;2.30;99.90;;;;;;5079309;28;20228;-63
2022/04/11 05:49:32;;;;;;;4.43;2.83;;;2.30;99.90;;;;;;5094530;27;20995;-61
2022/04/11 05:52:00;;;;;;;6.00;3.43;;;2.30;99.90;;;;;;5088237;27;20214;-61
2022/04/11 05:54:27;;;;;;;7.17;3.50;;;2.40;99.90;;;;;;5079697;27;20312;-62
2022/04/11 05:56:55;;;;;;;8.97;2.67;;;2.40;99.90;;;;;;5077210;27;20199;-62
2022/04/11 05:59:23;;;;;;;6.53;3.20;;;2.50;99.90;;;;;;5062476;28;20205;-63
2022/04/11 06:01:50;;;;;;;6.70;2.77;;;2.50;99.90;;;;;;5070102;27;20207;-63
2022/04/11 06:04:17;;;;;;;5.33;2.90;;;2.60;99.90;;;;;;5086723;28;20959;-62
2022/04/11 06:06:44;;;;;;;8.50;3.30;;;2.60;99.90;;;;;;5084348;28;21003;-63
2022/04/11 06:09:11;;;;;;;3.80;2.67;;;2.60;99.90;;;;;;5082169;28;21389;-63
2022/04/11 06:11:38;;;;;;;5.47;3.30;;;2.60;99.90;;;;;;5080189;27;20199;-62
2022/04/11 06:14:05;;;;;;;7.83;3.90;;;2.70;99.90;;;;;;5085196;27;20213;-63
2022/04/11 06:16:33;;;;;;;5.43;3.10;;;2.80;99.90;;;;;;5061512;28;20377;-62
2022/04/11 06:19:00;;;;;;;11.00;3.40;;;2.90;99.90;;;;;;5094967;27;20227;-63
2022/04/11 06:21:27;;;;;;;8.07;3.53;;;2.90;99.90;;;;;;5075142;28;20914;-62
2022/04/11 06:23:54;;;;;;;6.83;3.53;;;3.00;99.90;;;;;;5088736;28;20219;-62
2022/04/11 06:26:21;;;;;;;6.60;3.47;;;3.10;99.90;;;;;;5059776;27;20219;-62
2022/04/11 06:28:48;;;;;;;9.27;3.57;;;3.20;99.90;;;;;;5074776;27;20789;-63
2022/04/11 06:31:15;;;;;;;6.50;3.33;;;3.20;99.90;;;;;;5060123;28;20212;-62
2022/04/11 06:33:43;;;;;;;4.87;3.43;;;3.20;99.90;;;;;;5080282;27;20198;-60
2022/04/11 06:36:10;;;;;;;5.57;3.57;;;3.20;99.90;;;;;;5075352;28;20231;-62
2022/04/11 06:38:37;;;;;;;10.97;3.43;;;3.30;99.90;;;;;;5071396;28;20194;-62
2022/04/11 06:41:04;;;;;;;9.23;3.67;;;3.40;99.90;;;;;;5064648;27;20310;-62
2022/04/11 06:43:31;;;;;;;8.60;3.23;;;3.40;99.90;;;;;;5074523;28;20194;-62
2022/04/11 06:45:58;;;;;;;7.17;3.30;;;3.50;99.90;;;;;;5062303;27;20247;-62
2022/04/11 06:48:25;;;;;;;10.47;3.30;;;3.50;99.90;;;;;;5058229;28;20335;-62
2022/04/11 06:50:54;;;;;;;6.57;3.17;;;3.60;99.90;;;;;;5081668;28;20209;-60
2022/04/11 06:53:21;;;;;;;5.03;3.07;;;3.60;99.90;;;;;;5080558;28;20219;-60
2022/04/11 06:55:48;;;;;;;5.63;3.30;;;3.60;99.90;;;;;;5074529;27;20203;-61
2022/04/11 06:58:15;;;;;;;6.97;3.40;;;3.60;99.90;;;;;;5076206;27;20582;-61
2022/04/11 07:00:43;;;;;;;7.10;3.20;;;3.70;99.90;;;;;;5085525;28;20872;-61
2022/04/11 07:03:10;;;;;;;6.13;3.30;;;3.80;99.90;;;;;;5067230;28;20226;-61
2022/04/11 07:05:37;;;;;;;4.43;3.40;;;3.80;99.90;;;;;;5065606;28;20225;-61
2022/04/11 07:08:06;;;;;;;5.47;3.20;;;3.90;99.90;;;;;;5087999;28;20224;-61
2022/04/11 07:10:33;;;;;;;6.80;3.97;;;4.00;99.90;;;;;;5081523;28;20225;-61
2022/04/11 07:13:01;;;;;;;7.50;3.30;;;4.10;99.90;;;;;;5074805;28;20229;-61
2022/04/11 07:15:28;;;;;;;9.57;3.97;;;4.10;99.90;;;;;;5072552;27;20305;-60
2022/04/11 07:17:55;;;;;;;22.57;4.70;;;4.20;99.90;;;;;;5078341;28;20865;-61
2022/04/11 07:20:21;;;;;;;7.20;4.07;;;4.30;99.90;;;;;;5073694;27;20227;-60
2022/04/11 07:22:48;;;;;;;8.53;4.23;;;4.40;99.90;;;;;;5074466;28;20225;-61
2022/04/11 07:25:18;;;;;;;4.93;4.37;;;4.40;99.90;;;;;;5085365;28;20204;-61
2022/04/11 07:27:44;;;;;;;4.17;3.47;;;4.50;99.90;;;;;;5065334;28;21219;-61
2022/04/11 07:30:12;;;;;;;7.70;4.13;;;4.60;99.90;;;;;;5075128;27;20226;-61
2022/04/11 07:32:39;;;;;;;8.70;4.20;;;4.60;99.90;;;;;;5080614;27;20718;-61
2022/04/11 07:35:07;;;;;;;11.53;3.83;;;4.80;99.90;;;;;;5052075;28;20211;-61
2022/04/11 07:37:34;;;;;;;7.57;3.83;;;4.80;99.90;;;;;;5070205;28;20224;-62
2022/04/11 07:40:01;;;;;;;7.80;3.50;;;4.90;99.90;;;;;;5072549;28;20227;-61
2022/04/11 07:42:30;;;;;;;15.73;4.00;;;5.00;99.90;;;;;;5084636;27;20202;-61
2022/04/11 07:44:57;;;;;;;9.03;4.07;;;5.10;99.90;;;;;;5071586;28;20210;-61
2022/04/11 07:47:25;;;;;;;8.07;3.70;;;5.20;99.90;;;;;;5084892;27;20336;-62
2022/04/11 07:49:52;;;;;;;7.30;3.50;;;5.30;99.90;;;;;;5065603;27;20310;-62
2022/04/11 07:52:21;;;;;;;4.10;3.50;;;5.30;99.90;;;;;;5069672;28;20199;-63
2022/04/11 07:54:48;;;;;;;7.03;3.97;;;5.40;99.90;;;;;;5090018;28;20195;-63
2022/04/11 07:57:14;;;;;;;12.17;4.00;;;5.40;99.90;;;;;;5067705;28;20228;-61
2022/04/11 07:59:43;;;;;;;11.60;3.93;;;5.50;99.90;;;;;;5076657;27;20195;-62
2022/04/11 08:02:10;;;;;;;7.00;3.87;;;5.50;99.90;;;;;;5068173;27;20216;-61
2022/04/11 08:04:37;;;;;;;7.30;3.97;;;5.60;99.90;;;;;;5081453;28;20238;-62
2022/04/11 08:07:04;;;;;;;9.23;4.00;;;5.60;99.90;;;;;;5057085;28;20223;-61
2022/04/11 08:09:31;;;;;;;5.57;3.23;;;5.60;99.90;;;;;;5108365;28;20247;-62
2022/04/11 08:11:58;;;;;;;5.77;3.00;;;5.60;99.90;;;;;;5076063;28;20277;-61
2022/04/11 08:14:25;;;;;;;6.20;3.50;;;5.60;99.90;;;;;;5077375;28;20203;-61
2022/04/11 08:16:53;;;;;;;4.10;3.40;;;5.70;99.90;;;;;;5072519;28;20199;-61
2022/04/11 08:19:20;;;;;;;5.50;3.43;;;5.70;99.90;;;;;;5084107;28;20294;-61
2022/04/11 08:21:47;;;;;;;5.57;3.53;;;5.70;99.90;;;;;;5069592;28;20207;-61
2022/04/11 08:24:14;;;;;;;8.23;3.87;;;5.80;99.90;;;;;;5070960;28;20215;-61
2022/04/11 08:26:41;;;;;;;5.90;3.30;;;5.70;99.90;;;;;;5072971;28;20231;-61
2022/04/11 08:29:08;;;;;;;8.87;3.63;;;5.80;99.90;;;;;;5071695;28;25627;-61
2022/04/11 08:31:35;;;;;;;11.53;3.57;;;5.80;99.90;;;;;;5064653;28;20289;-61
2022/04/11 08:34:03;;;;;;;7.13;3.13;;;5.90;99.90;;;;;;5084533;28;20197;-61
2022/04/11 08:36:31;;;;;;;7.50;3.10;;;6.00;99.90;;;;;;5058545;28;20238;-61
2022/04/11 08:38:58;;;;;;;7.33;3.17;;;6.00;99.90;;;;;;5075039;28;20220;-61
2022/04/11 08:41:32;;;;;;;3.90;2.47;;;6.00;99.90;;;;;;5074068;28;20207;-61
2022/04/11 08:44:01;;;;;;;3.87;2.03;;;6.10;99.90;;;;;;5062036;28;20230;-62
2022/04/11 08:46:30;;;;;;;5.27;2.10;;;6.10;99.90;;;;;;5070175;28;20210;-61
2022/04/11 08:48:57;;;;;;;3.23;1.47;;;6.20;99.90;;;;;;5073405;28;20339;-61
2022/04/11 08:51:26;;;;;;;3.80;1.17;;;6.20;99.90;;;;;;5087640;28;21105;-61
2022/04/11 08:53:53;;;;;;;1.40;1.13;;;6.20;99.90;;;;;;5057757;27;20205;-62
2022/04/11 08:56:20;;;;;;;2.13;1.57;;;6.30;99.90;;;;;;5078971;27;20224;-61
2022/04/11 08:58:47;;;;;;;6.60;1.20;;;6.30;99.90;;;;;;5065528;28;20751;-62
2022/04/11 09:01:14;;;;;;;5.20;1.40;;;6.40;99.90;;;;;;5081440;27;20246;-61
2022/04/11 09:03:42;;;;;;;3.37;1.13;;;6.50;99.90;;;;;;5070091;27;20226;-61
2022/04/11 09:06:10;;;;;;;2.97;1.50;;;6.60;99.90;;;;;;5075882;27;20338;-62
2022/04/11 09:08:43;;;;;;;3.30;1.30;;;6.60;99.90;;;;;;5067149;28;20312;-62
2022/04/11 09:11:10;;;;;;;4.37;1.57;;;6.70;99.90;;;;;;5066629;27;20208;-61
2022/04/11 09:13:51;;;;;;;4.20;1.17;;;6.70;99.90;;;;;;5074198;28;20225;-62
2022/04/11 09:16:19;;;;;;;4.00;0.90;;;6.70;99.90;;;;;;5077174;28;20199;-61
2022/04/11 09:18:48;;;;;;;2.90;0.97;;;6.80;99.90;;;;;;5072286;27;22156;-61
2022/04/11 09:21:15;;;;;;;2.87;1.63;;;6.90;99.90;;;;;;5083694;27;20205;-62
2022/04/11 09:23:44;;;;;;;4.27;1.00;;;6.90;99.90;;;;;;5063396;28;20237;-62
2022/04/11 09:26:19;;;;;;;3.27;1.93;;;7.10;99.90;;;;;;5079502;28;20199;-62
2022/04/11 09:28:59;;;;;;;2.73;1.73;;;7.10;99.90;;;;;;5079247;27;20262;-62
2022/04/11 09:31:26;;;;;;;3.03;1.53;;;7.20;99.90;;;;;;5079162;27;20221;-62
2022/04/11 09:33:53;;;;;;;6.13;1.50;;;7.40;99.90;;;;;;5058704;27;20212;-62
2022/04/11 09:36:21;;;;;;;6.43;1.30;;;7.50;99.90;;;;;;5088988;27;20203;-62
2022/04/11 09:38:59;;;;;;;2.33;1.10;;;7.60;99.90;;;;;;5071223;27;20929;-62
2022/04/11 09:41:29;;;;;;;2.63;1.30;;;7.70;99.90;;;;;;5081460;27;20209;-62
2022/04/11 09:43:57;;;;;;;3.70;1.37;;;7.70;99.90;;;;;;5083700;27;20236;-61
2022/04/11 09:46:24;;;;;;;1.80;1.40;;;7.80;99.90;;;;;;5075046;28;20209;-62
2022/04/11 09:48:55;;;;;;;2.23;1.10;;;7.80;99.90;;;;;;5069452;27;20426;-67
2022/04/11 09:51:22;;;;;;;1.53;1.23;;;7.80;99.90;;;;;;5085271;27;20225;-62
2022/04/11 09:53:49;;;;;;;2.70;1.10;;;7.90;99.90;;;;;;5079101;27;20295;-62
2022/04/11 09:56:19;;;;;;;1.70;1.10;;;8.00;99.90;;;;;;5069964;27;20219;-62
2022/04/11 09:58:48;;;;;;;5.20;1.57;;;8.00;99.90;;;;;;5080109;27;20676;-62
2022/04/11 10:01:16;;;;;;;1.87;1.17;;;8.00;99.90;;;;;;5074402;27;20219;-62
2022/04/11 10:03:46;;;;;;;2.10;1.13;;;8.10;99.90;;;;;;5082846;27;20209;-63
2022/04/11 10:06:14;;;;;;;6.27;1.40;;;8.10;99.90;;;;;;5069382;27;20215;-62
2022/04/11 10:08:43;;;;;;;4.57;1.17;;;8.10;99.90;;;;;;5079627;27;20227;-62
2022/04/11 10:11:11;;;;;;;2.07;1.43;;;8.10;99.90;;;;;;5069476;27;20224;-63
2022/04/11 10:13:41;;;;;;;2.50;1.00;;;8.20;99.90;;;;;;5076321;28;20226;-63
2022/04/11 10:16:08;;;;;;;4.23;1.10;;;8.20;99.90;;;;;;5075773;27;20374;-62
2022/04/11 10:18:36;;;;;;;2.67;1.50;;;8.20;99.90;;;;;;5071927;27;20229;-64
2022/04/11 10:21:06;;;;;;;2.43;1.20;;;8.30;99.90;;;;;;5070835;27;20223;-63
2022/04/11 10:23:35;;;;;;;3.33;1.40;;;8.20;99.90;;;;;;5069631;27;20249;-66
2022/04/11 10:26:13;;;;;;;4.40;0.97;;;8.20;99.90;;;;;;5061612;27;20344;-63
2022/04/11 10:28:51;;;;;;;3.73;1.20;;;8.30;99.90;;;;;;5080574;27;20227;-63
2022/04/11 10:31:19;;;;;;;5.47;1.50;;;8.30;99.90;;;;;;5084098;28;20220;-62
2022/04/11 10:33:48;;;;;;;2.53;1.20;;;8.40;99.90;;;;;;5082145;27;20196;-63
2022/04/11 10:36:30;;;;;;;4.23;1.90;;;8.40;99.90;;;;;;5085671;27;20252;-62
2022/04/11 10:39:21;;;;;;;4.50;1.50;;;8.40;99.90;;;;;;5081474;27;20203;-64
2022/04/11 10:42:14;;;;;;;4.20;1.30;;;8.40;99.90;;;;;;5072445;28;20322;-62
2022/04/11 10:44:43;;;;;;;4.23;1.43;;;8.30;99.90;;;;;;5078837;27;20209;-62
2022/04/11 10:47:37;;;;;;;2.77;1.30;;;8.30;99.90;;;;;;5088912;27;20311;-63
2022/04/11 10:50:34;;;;;;;3.03;1.30;;;8.30;99.90;;;;;;5056673;28;20579;-62
2022/04/11 10:53:09;;;;;;;3.67;2.13;;;8.40;99.90;;;;;;5076415;28;20709;-62
2022/04/11 10:55:37;;;;;;;3.47;1.63;;;8.50;99.90;;;;;;5090832;27;20283;-63
2022/04/11 10:58:05;;;;;;;2.43;1.60;;;8.60;99.90;;;;;;5074020;28;20733;-63
2022/04/11 11:00:35;;;;;;;3.97;1.60;;;8.60;99.90;;;;;;5097014;27;20197;-61
2022/04/11 11:03:14;;;;;;;3.20;1.60;;;8.60;99.90;;;;;;5068496;27;20223;-63
2022/04/11 11:05:43;;;;;;;3.67;1.40;;;8.60;99.90;;;;;;5093459;27;20201;-62
2022/04/11 11:08:32;;;;;;;3.30;1.60;;;8.50;99.90;;;;;;5077695;28;20305;-62
2022/04/11 11:11:02;;;;;;;3.80;1.60;;;8.60;99.90;;;;;;5090452;27;20210;-62
2022/04/11 11:13:38;;;;;;;6.73;1.77;;;8.60;99.90;;;;;;5057104;27;20222;-62
2022/04/11 11:16:41;;;;;;;5.87;2.10;;;8.60;99.90;;;;;;5083069;28;20206;-62
2022/04/11 11:19:17;;;;;;;3.67;1.63;;;8.60;99.90;;;;;;5064019;28;20207;-62
2022/04/11 11:22:02;;;;;;;4.50;1.77;;;8.70;99.90;;;;;;5081599;28;20211;-64
2022/04/11 11:24:30;;;;;;;3.67;1.80;;;8.60;99.90;;;;;;5070755;27;20908;-63
2022/04/11 11:26:59;;;;;;;5.77;1.63;;;8.60;99.90;;;;;;5069306;28;20211;-63
2022/04/11 11:29:29;;;;;;;2.63;1.60;;;8.80;99.90;;;;;;5070448;28;20849;-63
2022/04/11 11:31:58;;;;;;;3.27;1.60;;;8.90;99.90;;;;;;5081982;28;20773;-63
2022/04/11 11:34:28;;;;;;;3.50;1.47;;;8.90;99.90;;;;;;5068523;27;20230;-63
2022/04/11 11:37:00;;;;;;;2.97;1.60;;;9.00;99.90;;;;;;5084037;27;20216;-63
2022/04/11 11:39:28;;;;;;;10.67;1.53;;;9.00;99.90;;;;;;5060757;28;21162;-63
2022/04/11 11:42:00;;;;;;;2.73;1.43;;;9.10;99.90;;;;;;5056804;27;20231;-63
2022/04/11 11:44:28;;;;;;;1.43;1.27;;;9.00;99.90;;;;;;5085443;28;20481;-62
2022/04/11 11:46:56;;;;;;;3.33;1.50;;;9.10;99.90;;;;;;5082931;28;20210;-63
2022/04/11 11:49:26;;;;;;;4.47;1.80;;;9.10;99.90;;;;;;5084799;28;20491;-62
2022/04/11 11:51:54;;;;;;;5.90;1.50;;;9.30;99.90;;;;;;5060381;28;20206;-63
2022/04/11 11:54:34;;;;;;;4.40;1.50;;;9.40;99.90;;;;;;5070369;27;20204;-62
2022/04/11 11:57:02;;;;;;;4.13;1.80;;;9.50;99.90;;;;;;5075228;28;20227;-63
2022/04/11 11:59:29;;;;;;;3.47;1.57;;;9.70;99.90;;;;;;5064942;28;20231;-62
2022/04/11 12:04:39;;;;;;;3.93;1.33;;;9.70;99.90;;;;;;5071775;28;20226;-62
2022/04/11 12:07:06;;;;;;;6.00;1.77;;;9.70;99.90;;;;;;5060716;28;20203;-62
2022/04/11 12:09:37;;;;;;;2.97;1.77;;;9.70;99.90;;;;;;5061852;28;20242;-62
2022/04/11 12:12:05;;;;;;;3.90;1.50;;;9.70;99.90;;;;;;5084612;28;20216;-62
2022/04/11 12:15:00;;;;;;;2.87;1.40;;;9.70;99.90;;;;;;5068578;28;20206;-62
2022/04/11 12:17:31;;;;;;;4.83;3.63;;;9.70;99.90;;;;;;5074863;28;20258;-62
2022/04/11 12:20:09;;;;;;;5.63;2.00;;;9.60;99.90;;;;;;5086357;28;20319;-61
2022/04/11 12:22:36;;;;;;;5.40;2.60;;;9.70;99.90;;;;;;5061614;28;20311;-62
2022/04/11 12:25:22;;;;;;;2.63;1.83;;;9.70;99.90;;;;;;5081265;28;20199;-62
2022/04/11 12:27:50;;;;;;;3.00;1.47;;;9.60;99.90;;;;;;5070293;28;20890;-61
2022/04/11 12:30:17;;;;;;;3.37;1.50;;;9.50;99.90;;;;;;5062224;28;20227;-62
2022/04/11 12:32:44;;;;;;;4.53;1.60;;;9.40;99.90;;;;;;5078984;28;20704;-62
2022/04/11 12:35:58;;;;;;;4.33;1.40;;;9.50;99.90;;;;;;5073503;28;20211;-62
2022/04/11 12:38:43;;;;;;;4.17;1.90;;;9.60;99.90;;;;;;5056098;28;20215;-62
2022/04/11 12:41:29;;;;;;;2.17;1.60;;;9.70;99.90;;;;;;5064523;28;20343;-62
2022/04/11 12:44:10;;;;;;;3.93;1.53;;;9.80;99.90;;;;;;5084864;28;20286;-62
2022/04/11 12:46:40;;;;;;;4.27;2.03;;;9.90;99.90;;;;;;5070966;28;20563;-62
2022/04/11 12:49:07;;;;;;;7.72;2.58;;;9.90;99.90;;;;;;5085703;28;20594;-61
2022/04/11 12:51:34;;;;;;;5.72;2.72;;;9.80;99.90;;;;;;5086535;28;20191;-61
2022/04/11 12:54:08;;;;;;;2.27;1.60;;;9.90;99.90;;;;;;5067614;28;20234;-61
2022/04/11 12:56:43;;;;;;;8.20;4.57;;;9.70;99.90;;;;;;5085137;28;20286;-61
2022/04/11 12:59:12;;;;;;;3.80;1.90;;;9.60;99.90;;;;;;5074895;28;20199;-62
2022/04/11 13:01:54;;;;;;;4.23;2.00;;;9.70;99.90;;;;;;5072638;28;20299;-61
2022/04/11 13:04:22;;;;;;;3.80;1.73;;;9.60;99.90;;;;;;5085797;28;20222;-61
2022/04/11 13:06:50;;;;;;;2.20;1.40;;;9.60;99.90;;;;;;5089294;28;20717;-62
2022/04/11 13:09:23;;;;;;;3.07;1.60;;;9.70;99.90;;;;;;5081459;28;20211;-62